Time;durP1;ratioP1;P1;durP2;ratioP2;P2;SDS_P1;SDS_P2;PMS_P1;PMS_P2;Temp;Humidity;BMP_temperature;BMP_pressure;BME280_temperature;BME280_humidity;BME280_pressure;Samples;Min_cycle;Max_cycle;Signal;HPM_P1;HPM_P2
2023/07/02 00:01:45;;;;;;;10.45;5.70;;;15.80;99.90;;;;;;5018025;28;20483;-71
2023/07/02 00:04:15;;;;;;;8.23;5.30;;;15.70;99.90;;;;;;5025274;28;20026;-71
2023/07/02 00:06:45;;;;;;;9.90;5.65;;;15.70;99.90;;;;;;5028484;28;20041;-72
2023/07/02 00:09:11;;;;;;;9.88;6.13;;;15.70;99.90;;;;;;5027907;28;20040;-71
2023/07/02 00:11:38;;;;;;;12.88;5.97;;;15.60;99.90;;;;;;5019444;28;20037;-74
2023/07/02 00:14:05;;;;;;;10.25;6.00;;;15.50;99.90;;;;;;5029065;28;20037;-73
2023/07/02 00:16:30;;;;;;;12.68;5.70;;;15.50;99.90;;;;;;5025359;28;20483;-73
2023/07/02 00:18:57;;;;;;;11.88;5.80;;;15.50;99.90;;;;;;5026027;28;20048;-72
2023/07/02 00:21:22;;;;;;;11.00;5.93;;;15.50;99.90;;;;;;5024942;28;20037;-73
2023/07/02 00:23:48;;;;;;;10.00;5.80;;;15.50;99.90;;;;;;5014006;28;20048;-72
2023/07/02 00:26:14;;;;;;;9.32;5.47;;;15.50;99.90;;;;;;5025530;28;20029;-71
2023/07/02 00:28:39;;;;;;;9.35;5.93;;;15.40;99.90;;;;;;5013369;28;20436;-73
2023/07/02 00:31:05;;;;;;;12.40;5.80;;;15.40;99.90;;;;;;5028636;28;20044;-73
2023/07/02 00:33:32;;;;;;;11.50;6.45;;;15.40;99.90;;;;;;5021162;28;20747;-73
2023/07/02 00:36:00;;;;;;;10.13;5.97;;;15.40;99.90;;;;;;5027809;28;20036;-73
2023/07/02 00:38:26;;;;;;;14.38;6.13;;;15.40;99.90;;;;;;5027736;28;20557;-73
2023/07/02 00:40:51;;;;;;;10.82;5.75;;;15.40;99.90;;;;;;5019253;28;20167;-72
2023/07/02 00:43:17;;;;;;;11.48;5.55;;;15.40;99.90;;;;;;5026745;28;20025;-71
2023/07/02 00:45:44;;;;;;;8.93;5.43;;;15.40;99.90;;;;;;5026392;28;20487;-73
2023/07/02 00:48:10;;;;;;;8.27;5.53;;;15.40;99.90;;;;;;5027557;28;20030;-73
2023/07/02 00:50:36;;;;;;;8.90;5.60;;;15.40;99.90;;;;;;5011641;28;20048;-73
2023/07/02 00:53:01;;;;;;;8.68;5.32;;;15.40;99.90;;;;;;5016228;28;20488;-74
2023/07/02 00:55:27;;;;;;;10.93;5.55;;;15.40;99.90;;;;;;5022601;28;20034;-73
2023/07/02 00:57:53;;;;;;;14.60;4.75;;;15.40;99.90;;;;;;5027686;28;20360;-72
2023/07/02 01:00:19;;;;;;;9.77;5.03;;;15.40;99.90;;;;;;5015149;28;20126;-72
2023/07/02 01:02:58;;;;;;;9.32;5.15;;;15.40;99.90;;;;;;5019925;28;20033;-74
2023/07/02 01:05:35;;;;;;;7.97;5.15;;;15.40;99.90;;;;;;5026437;28;20117;-73
2023/07/02 01:08:05;;;;;;;9.15;5.20;;;15.40;99.90;;;;;;5024960;28;20107;-73
2023/07/02 01:10:32;;;;;;;15.40;5.03;;;15.40;99.90;;;;;;5010017;28;20380;-74
2023/07/02 01:13:04;;;;;;;8.73;5.25;;;15.40;99.90;;;;;;5026658;28;20399;-71
2023/07/02 01:15:30;;;;;;;10.68;5.50;;;15.50;99.90;;;;;;5012507;28;20095;-73
2023/07/02 01:17:56;;;;;;;9.80;5.18;;;15.40;99.90;;;;;;5025413;28;20045;-73
2023/07/02 01:20:23;;;;;;;16.30;5.88;;;15.40;99.90;;;;;;5021399;28;20487;-72
2023/07/02 01:22:52;;;;;;;12.82;5.25;;;15.30;99.90;;;;;;5024195;28;20033;-72
2023/07/02 01:25:18;;;;;;;19.25;6.43;;;15.30;99.90;;;;;;5017527;28;20550;-73
2023/07/02 01:27:44;;;;;;;11.85;6.20;;;15.20;99.90;;;;;;5027821;28;20022;-73
2023/07/02 01:30:10;;;;;;;14.85;5.68;;;15.10;99.90;;;;;;5015009;28;20131;-72
2023/07/02 01:32:37;;;;;;;10.80;5.50;;;15.10;99.90;;;;;;5020725;28;20733;-72
2023/07/02 01:35:03;;;;;;;20.88;7.55;;;15.10;99.90;;;;;;5018281;28;20026;-73
2023/07/02 01:37:37;;;;;;;8.98;6.07;;;15.10;99.90;;;;;;5025828;28;20037;-73
2023/07/02 01:40:06;;;;;;;12.20;6.13;;;15.10;99.90;;;;;;5026152;28;20076;-72
2023/07/02 01:42:32;;;;;;;12.35;5.65;;;15.00;99.90;;;;;;5016607;28;20112;-73
2023/07/02 01:44:58;;;;;;;11.30;6.65;;;14.90;99.90;;;;;;5018341;28;20033;-73
2023/07/02 01:47:24;;;;;;;10.70;5.68;;;14.90;99.90;;;;;;5023238;28;20049;-73
2023/07/02 01:49:50;;;;;;;10.10;6.00;;;14.90;99.90;;;;;;5009209;28;20072;-73
2023/07/02 01:52:16;;;;;;;12.70;6.30;;;14.90;99.90;;;;;;5026405;28;20128;-73
2023/07/02 01:54:42;;;;;;;10.32;6.30;;;14.90;99.90;;;;;;5012385;28;20026;-72
2023/07/02 01:57:08;;;;;;;11.55;6.20;;;14.90;99.90;;;;;;5020691;28;20518;-73
2023/07/02 01:59:34;;;;;;;9.82;6.00;;;14.90;99.90;;;;;;5008678;28;20033;-74
2023/07/02 02:02:00;;;;;;;13.82;6.35;;;14.90;99.90;;;;;;5011666;28;20033;-72
2023/07/02 02:04:26;;;;;;;10.45;6.90;;;15.00;99.90;;;;;;5025895;28;20029;-72
2023/07/02 02:06:52;;;;;;;11.75;6.88;;;14.90;99.90;;;;;;5028417;28;20028;-72
2023/07/02 02:09:18;;;;;;;11.45;6.68;;;15.00;99.90;;;;;;5026860;28;20076;-72
2023/07/02 02:11:49;;;;;;;12.98;6.70;;;15.00;99.90;;;;;;5025437;28;20050;-73
2023/07/02 02:14:14;;;;;;;;;;;15.00;99.90;;;;;;5021014;28;20115;-72
2023/07/02 02:16:40;;;;;;;13.07;6.43;;;15.00;99.90;;;;;;5027161;28;20387;-72
2023/07/02 02:19:06;;;;;;;9.52;6.18;;;15.00;99.90;;;;;;5033795;28;20116;-71
2023/07/02 02:21:32;;;;;;;13.00;6.45;;;15.00;99.90;;;;;;5015543;28;20037;-74
2023/07/02 02:23:57;;;;;;;12.63;6.00;;;14.90;99.90;;;;;;5008576;28;20029;-73
2023/07/02 02:26:25;;;;;;;9.40;6.03;;;14.90;99.90;;;;;;5007569;28;20029;-73
2023/07/02 02:28:51;;;;;;;14.90;6.68;;;15.00;99.90;;;;;;5008427;28;20456;-73
2023/07/02 02:31:17;;;;;;;11.50;6.20;;;15.00;99.90;;;;;;5020526;28;20491;-72
2023/07/02 02:33:43;;;;;;;9.45;6.05;;;14.90;99.90;;;;;;5027271;28;20032;-71
2023/07/02 02:36:09;;;;;;;11.93;6.85;;;15.00;99.90;;;;;;5028999;28;20103;-74
2023/07/02 02:38:34;;;;;;;9.68;6.10;;;15.00;99.90;;;;;;5027070;28;20476;-72
2023/07/02 02:41:02;;;;;;;12.85;5.65;;;15.00;99.90;;;;;;5016816;28;20104;-72
2023/07/02 02:43:27;;;;;;;10.65;6.32;;;14.90;99.90;;;;;;5024498;28;20036;-73
2023/07/02 02:45:53;;;;;;;9.90;6.13;;;14.90;99.90;;;;;;5022218;28;20045;-73
2023/07/02 02:48:18;;;;;;;11.95;5.72;;;15.00;99.90;;;;;;5023373;28;20036;-73
2023/07/02 02:50:45;;;;;;;12.02;6.10;;;14.90;99.90;;;;;;5030883;28;20107;-73
2023/07/02 02:53:11;;;;;;;10.52;6.63;;;14.90;99.90;;;;;;5026120;28;20063;-73
2023/07/02 02:55:37;;;;;;;12.15;6.38;;;14.90;99.90;;;;;;5037518;28;20049;-73
2023/07/02 02:58:03;;;;;;;18.10;6.57;;;14.90;99.90;;;;;;5012581;28;20025;-73
2023/07/02 03:00:29;;;;;;;9.15;5.80;;;14.90;99.90;;;;;;5017597;28;20037;-73
2023/07/02 03:02:55;;;;;;;12.07;6.00;;;14.90;99.90;;;;;;5036697;28;20056;-73
2023/07/02 03:05:23;;;;;;;16.75;5.80;;;14.90;99.90;;;;;;5035037;28;20470;-71
2023/07/02 03:07:51;;;;;;;14.05;5.88;;;14.80;99.90;;;;;;5029491;28;20136;-73
2023/07/02 03:10:17;;;;;;;9.15;5.80;;;14.80;99.90;;;;;;5022058;28;20038;-72
2023/07/02 03:12:42;;;;;;;13.38;6.45;;;14.80;99.90;;;;;;5024892;28;20046;-73
2023/07/02 03:15:09;;;;;;;15.23;6.03;;;14.80;99.90;;;;;;5019631;28;20056;-73
2023/07/02 03:17:35;;;;;;;13.82;6.30;;;14.80;99.90;;;;;;5021673;28;20034;-73
2023/07/02 03:20:01;;;;;;;13.32;6.60;;;14.80;99.90;;;;;;5024492;28;20100;-73
2023/07/02 03:22:26;;;;;;;12.50;5.43;;;14.80;99.90;;;;;;5028111;28;20125;-72
2023/07/02 03:24:52;;;;;;;10.98;5.60;;;14.80;99.90;;;;;;5029035;28;20101;-72
2023/07/02 03:27:17;;;;;;;9.40;5.60;;;14.80;99.90;;;;;;5015461;28;20026;-72
2023/07/02 03:29:43;;;;;;;13.40;5.80;;;14.80;99.90;;;;;;5032767;28;20047;-72
2023/07/02 03:32:09;;;;;;;12.88;6.20;;;14.80;99.90;;;;;;5025080;28;20373;-73
2023/07/02 03:34:34;;;;;;;16.23;5.97;;;14.80;99.90;;;;;;5029638;28;20036;-73
2023/07/02 03:37:00;;;;;;;13.48;6.03;;;14.80;99.90;;;;;;5028231;28;20079;-72
2023/07/02 03:39:26;;;;;;;13.73;5.75;;;14.80;99.90;;;;;;5011273;28;20651;-73
2023/07/02 03:41:51;;;;;;;9.85;5.47;;;14.90;99.90;;;;;;5020296;28;20033;-72
2023/07/02 03:44:17;;;;;;;12.85;5.85;;;14.90;99.90;;;;;;5022796;28;20072;-71
2023/07/02 03:46:43;;;;;;;11.75;5.80;;;14.90;99.90;;;;;;5025070;28;20046;-73
2023/07/02 03:49:09;;;;;;;11.93;6.07;;;14.90;99.90;;;;;;5013074;28;20034;-73
2023/07/02 03:51:34;;;;;;;9.38;5.55;;;14.90;99.90;;;;;;5024186;28;20480;-73
2023/07/02 03:54:00;;;;;;;12.70;5.57;;;15.00;99.90;;;;;;5016543;28;20033;-72
2023/07/02 03:56:26;;;;;;;9.05;5.30;;;14.90;99.90;;;;;;5028242;28;20032;-72
2023/07/02 03:58:52;;;;;;;10.20;5.78;;;14.90;99.90;;;;;;5032459;28;20387;-72
2023/07/02 04:01:18;;;;;;;9.20;5.70;;;14.90;99.90;;;;;;5006525;28;20046;-72
2023/07/02 04:03:53;;;;;;;15.75;5.70;;;15.00;99.90;;;;;;5009637;28;20036;-72
2023/07/02 04:06:19;;;;;;;9.05;5.63;;;15.00;99.90;;;;;;4992675;28;20060;-73
2023/07/02 04:08:45;;;;;;;10.27;5.78;;;15.10;99.90;;;;;;5033642;28;20052;-73
2023/07/02 04:11:12;;;;;;;9.80;5.85;;;15.10;99.90;;;;;;5023354;28;20053;-73
2023/07/02 04:13:39;;;;;;;9.95;5.35;;;15.20;99.90;;;;;;5017823;28;20057;-72
2023/07/02 04:16:05;;;;;;;12.07;6.30;;;15.30;99.90;;;;;;5030048;28;20120;-71
2023/07/02 04:18:30;;;;;;;14.38;6.38;;;15.30;99.90;;;;;;5029620;28;20124;-72
2023/07/02 04:20:56;;;;;;;11.25;6.32;;;15.20;99.90;;;;;;5019778;28;20443;-72
2023/07/02 04:23:22;;;;;;;14.55;5.93;;;15.10;99.90;;;;;;5010060;28;20037;-72
2023/07/02 04:25:48;;;;;;;9.82;6.45;;;15.00;99.90;;;;;;5022721;28;20060;-72
2023/07/02 04:28:13;;;;;;;13.50;6.40;;;14.90;99.90;;;;;;5016895;28;20387;-73
2023/07/02 04:30:39;;;;;;;11.93;6.10;;;14.80;99.90;;;;;;5017717;28;20053;-72
2023/07/02 04:33:07;;;;;;;16.35;6.88;;;14.90;99.90;;;;;;5024370;28;20048;-73
2023/07/02 04:35:34;;;;;;;14.30;5.57;;;14.80;99.90;;;;;;5022984;28;20477;-73
2023/07/02 04:38:03;;;;;;;11.43;5.32;;;14.80;99.90;;;;;;5028426;28;20021;-73
2023/07/02 04:40:28;;;;;;;10.15;4.93;;;14.70;99.90;;;;;;5022673;28;20033;-72
2023/07/02 04:42:57;;;;;;;10.75;5.25;;;14.70;99.90;;;;;;5022282;28;20384;-72
2023/07/02 04:45:24;;;;;;;11.23;5.28;;;14.50;99.90;;;;;;5026860;28;20054;-73
2023/07/02 04:47:50;;;;;;;9.73;5.35;;;14.40;99.90;;;;;;5021199;28;20030;-72
2023/07/02 04:50:17;;;;;;;10.35;5.78;;;14.30;99.90;;;;;;5013086;28;20713;-72
2023/07/02 04:52:42;;;;;;;12.30;6.40;;;14.30;99.90;;;;;;5009771;28;20033;-71
2023/07/02 04:55:08;;;;;;;15.27;6.68;;;14.30;99.90;;;;;;5011420;28;20037;-72
2023/07/02 04:57:34;;;;;;;12.27;6.82;;;14.30;99.90;;;;;;5015686;28;20437;-71
2023/07/02 05:00:00;;;;;;;15.60;7.07;;;14.30;99.90;;;;;;5022594;28;20104;-71
2023/07/02 05:02:26;;;;;;;20.45;7.35;;;14.30;99.90;;;;;;5022026;28;20118;-72
2023/07/02 05:04:51;;;;;;;14.27;7.40;;;14.20;99.90;;;;;;5014703;28;20029;-72
2023/07/02 05:07:17;;;;;;;16.55;7.47;;;14.20;99.90;;;;;;5026869;28;20464;-73
2023/07/02 05:09:42;;;;;;;21.40;8.43;;;14.20;99.90;;;;;;5038126;28;20039;-73
2023/07/02 05:12:09;;;;;;;16.38;9.10;;;14.10;99.90;;;;;;5027078;28;20760;-73
2023/07/02 05:14:34;;;;;;;15.73;8.10;;;14.00;99.90;;;;;;5011484;28;20064;-72
2023/07/02 05:17:00;;;;;;;17.10;8.40;;;14.00;99.90;;;;;;5009667;28;20038;-73
2023/07/02 05:19:26;;;;;;;25.70;9.77;;;14.00;99.90;;;;;;5025027;28;20148;-72
2023/07/02 05:21:51;;;;;;;24.60;9.77;;;14.00;99.90;;;;;;5020029;28;20480;-73
2023/07/02 05:24:17;;;;;;;23.63;10.07;;;13.90;99.90;;;;;;5023185;28;20095;-72
2023/07/02 05:26:43;;;;;;;21.42;9.88;;;13.90;99.90;;;;;;5011916;28;20477;-74
2023/07/02 05:29:09;;;;;;;22.08;10.23;;;14.00;99.90;;;;;;5012631;28;20087;-72
2023/07/02 05:31:35;;;;;;;29.60;11.60;;;14.00;99.90;;;;;;5025933;28;20059;-72
2023/07/02 05:34:01;;;;;;;27.17;10.35;;;14.00;99.90;;;;;;5022288;28;20822;-72
2023/07/02 05:36:27;;;;;;;32.08;11.38;;;14.00;99.90;;;;;;5025206;28;20025;-72
2023/07/02 05:38:53;;;;;;;23.48;10.68;;;14.00;99.90;;;;;;5036955;28;20032;-73
2023/07/02 05:41:20;;;;;;;26.08;10.65;;;14.10;99.90;;;;;;5045829;28;20446;-73
2023/07/02 05:43:47;;;;;;;25.30;10.85;;;14.10;99.90;;;;;;5032803;28;20034;-72
2023/07/02 05:46:14;;;;;;;27.20;11.98;;;14.10;99.90;;;;;;5010209;28;20484;-72
2023/07/02 05:48:40;;;;;;;27.42;10.77;;;14.10;99.90;;;;;;5027348;28;20034;-73
2023/07/02 05:51:07;;;;;;;25.52;11.70;;;14.10;99.90;;;;;;5028385;28;20132;-73
2023/07/02 05:53:32;;;;;;;28.13;10.98;;;14.20;99.90;;;;;;5027854;28;20030;-71
2023/07/02 05:55:58;;;;;;;29.55;11.98;;;14.20;99.90;;;;;;5028557;28;20029;-72
2023/07/02 05:58:24;;;;;;;27.92;11.43;;;14.20;99.90;;;;;;5022751;28;20037;-73
2023/07/02 06:00:49;;;;;;;25.90;10.85;;;14.20;99.90;;;;;;5017282;28;20032;-72
2023/07/02 06:03:19;;;;;;;30.13;11.85;;;14.20;99.90;;;;;;5017645;28;20042;-75
2023/07/02 06:05:49;;;;;;;33.63;10.77;;;14.30;99.90;;;;;;5007847;28;20026;-75
2023/07/02 06:08:18;;;;;;;26.02;11.65;;;14.30;99.90;;;;;;5010902;28;20064;-76
2023/07/02 06:10:46;;;;;;;28.15;10.90;;;14.40;99.90;;;;;;5026475;28;20033;-75
2023/07/02 06:13:12;;;;;;;25.42;11.02;;;14.50;99.90;;;;;;5022929;28;20055;-73
2023/07/02 06:15:38;;;;;;;21.02;10.65;;;14.40;99.90;;;;;;5008566;28;20460;-73
2023/07/02 06:18:04;;;;;;;28.42;10.05;;;14.50;99.90;;;;;;5025571;28;20025;-74
2023/07/02 06:20:29;;;;;;;32.13;10.70;;;14.40;99.90;;;;;;5014055;28;20026;-75
2023/07/02 06:22:55;;;;;;;26.67;11.07;;;14.50;99.90;;;;;;5020745;28;20030;-75
2023/07/02 06:25:20;;;;;;;31.48;10.68;;;14.70;99.90;;;;;;5030305;28;20558;-73
2023/07/02 06:27:46;;;;;;;29.02;9.90;;;14.80;99.90;;;;;;5024893;28;20068;-74
2023/07/02 06:30:12;;;;;;;25.05;9.80;;;14.90;99.90;;;;;;5032455;28;20100;-74
2023/07/02 06:32:38;;;;;;;19.95;9.48;;;15.10;99.90;;;;;;5009131;28;20136;-73
2023/07/02 06:35:05;;;;;;;25.67;10.05;;;15.10;99.90;;;;;;5019339;28;20471;-72
2023/07/02 06:37:32;;;;;;;23.67;10.43;;;15.10;99.90;;;;;;5030584;28;20137;-74
2023/07/02 06:39:57;;;;;;;21.08;8.60;;;15.30;99.90;;;;;;5031137;28;20033;-75
2023/07/02 06:42:24;;;;;;;23.33;8.95;;;15.30;99.90;;;;;;5031541;28;20033;-74
2023/07/02 06:44:50;;;;;;;22.63;9.57;;;15.40;99.90;;;;;;5023719;28;20468;-73
2023/07/02 06:47:16;;;;;;;19.55;9.15;;;15.50;99.90;;;;;;5016154;28;20171;-74
2023/07/02 06:49:41;;;;;;;20.75;8.98;;;15.60;99.90;;;;;;5012455;28;20029;-73
2023/07/02 06:52:07;;;;;;;19.30;8.68;;;15.70;99.90;;;;;;5032356;28;20037;-74
2023/07/02 06:54:33;;;;;;;20.85;8.48;;;16.00;99.90;;;;;;5028599;28;20057;-71
2023/07/02 06:56:59;;;;;;;22.58;8.90;;;16.10;99.90;;;;;;5029100;28;20040;-73
2023/07/02 06:59:24;;;;;;;20.20;8.55;;;16.20;99.90;;;;;;5031031;28;20029;-73
2023/07/02 07:01:50;;;;;;;22.45;8.45;;;16.30;99.90;;;;;;5033131;28;20160;-73
2023/07/02 07:04:16;;;;;;;27.95;8.70;;;16.30;99.90;;;;;;5021286;28;20817;-72
2023/07/02 07:06:42;;;;;;;22.08;8.50;;;16.40;99.90;;;;;;5011838;28;20435;-71
2023/07/02 07:09:08;;;;;;;24.15;9.27;;;16.50;99.90;;;;;;5013530;28;20037;-72
2023/07/02 07:11:34;;;;;;;25.85;8.32;;;16.40;99.90;;;;;;5027001;28;20026;-72
2023/07/02 07:14:00;;;;;;;20.80;9.18;;;16.60;99.90;;;;;;5038854;28;20029;-71
2023/07/02 07:16:26;;;;;;;19.75;8.73;;;16.70;99.90;;;;;;5011145;28;20065;-72
2023/07/02 07:18:51;;;;;;;27.83;9.25;;;16.60;99.90;;;;;;5023777;28;20029;-71
2023/07/02 07:21:18;;;;;;;26.17;9.45;;;16.60;99.90;;;;;;5023222;28;20042;-71
2023/07/02 07:23:45;;;;;;;34.17;10.05;;;16.50;99.90;;;;;;4981674;28;20494;-69
2023/07/02 07:26:14;;;;;;;26.23;9.35;;;16.60;99.90;;;;;;5025277;28;20034;-72
2023/07/02 07:28:40;;;;;;;26.98;9.88;;;16.80;99.90;;;;;;5005578;28;20036;-71
2023/07/02 07:31:06;;;;;;;28.77;10.50;;;17.10;99.90;;;;;;5012743;28;20042;-71
2023/07/02 07:33:32;;;;;;;29.98;10.20;;;17.00;99.90;;;;;;5029909;28;20037;-74
2023/07/02 07:35:58;;;;;;;28.75;9.85;;;16.80;99.90;;;;;;5025596;28;20026;-73
2023/07/02 07:38:23;;;;;;;23.48;10.10;;;16.80;99.90;;;;;;5030910;28;20112;-72
2023/07/02 07:40:49;;;;;;;19.52;9.18;;;17.00;99.90;;;;;;5015816;28;20030;-71
2023/07/02 07:43:15;;;;;;;25.00;9.77;;;17.10;99.90;;;;;;5029801;28;20573;-72
2023/07/02 07:45:43;;;;;;;34.00;10.90;;;17.00;99.90;;;;;;5018654;28;20507;-71
2023/07/02 07:48:09;;;;;;;24.38;10.07;;;17.00;99.90;;;;;;5012613;28;20026;-73
2023/07/02 07:50:34;;;;;;;22.42;9.65;;;17.00;99.90;;;;;;5017403;28;20042;-71
2023/07/02 07:53:00;;;;;;;27.88;10.70;;;17.00;99.90;;;;;;5016906;28;20041;-72
2023/07/02 07:55:26;;;;;;;24.80;9.75;;;16.90;99.90;;;;;;5030191;28;20037;-72
2023/07/02 07:57:52;;;;;;;26.95;9.88;;;16.90;99.90;;;;;;5031451;28;20498;-72
2023/07/02 08:00:18;;;;;;;25.50;10.13;;;16.90;99.90;;;;;;5032777;28;20041;-72
2023/07/02 08:02:45;;;;;;;30.00;10.00;;;17.30;99.90;;;;;;5021985;28;20037;-72
2023/07/02 08:05:10;;;;;;;30.13;10.30;;;17.40;99.90;;;;;;5028077;28;20400;-72
2023/07/02 08:07:36;;;;;;;25.85;10.70;;;17.60;99.90;;;;;;5009158;28;20041;-71
2023/07/02 08:10:02;;;;;;;27.70;9.60;;;17.60;99.90;;;;;;5017413;28;20033;-74
2023/07/02 08:12:29;;;;;;;30.75;11.05;;;17.50;99.90;;;;;;5027902;28;20041;-72
2023/07/02 08:14:55;;;;;;;31.20;11.02;;;17.50;99.90;;;;;;5023587;28;20154;-72
2023/07/02 08:17:21;;;;;;;33.55;10.20;;;17.20;99.90;;;;;;5026237;28;20045;-72
2023/07/02 08:19:47;;;;;;;30.67;11.00;;;17.20;99.90;;;;;;5013323;28;20030;-71
2023/07/02 08:22:13;;;;;;;32.38;10.43;;;17.20;99.90;;;;;;5027885;28;20108;-71
2023/07/02 08:24:39;;;;;;;31.83;11.20;;;17.20;99.90;;;;;;5027128;28;20477;-71
2023/07/02 08:27:05;;;;;;;29.77;10.32;;;17.20;99.90;;;;;;5026774;28;20044;-71
2023/07/02 08:29:31;;;;;;;22.52;9.93;;;17.50;99.90;;;;;;5027003;28;20116;-71
2023/07/02 08:31:57;;;;;;;27.25;10.40;;;17.80;99.90;;;;;;5022987;28;20149;-72
2023/07/02 08:34:23;;;;;;;25.52;10.65;;;17.90;99.90;;;;;;5029293;28;20471;-72
2023/07/02 08:36:48;;;;;;;33.65;10.98;;;17.70;99.90;;;;;;5025177;28;20052;-72
2023/07/02 08:39:15;;;;;;;27.40;10.90;;;17.70;99.90;;;;;;5018199;28;20046;-71
2023/07/02 08:41:47;;;;;;;24.67;11.23;;;17.70;99.90;;;;;;5015014;28;20033;-71
2023/07/02 08:44:14;;;;;;;31.02;11.18;;;17.50;99.90;;;;;;5027671;28;20030;-72
2023/07/02 08:46:41;;;;;;;29.70;11.88;;;17.40;99.90;;;;;;5022801;28;20038;-72
2023/07/02 08:49:10;;;;;;;28.33;10.65;;;17.40;99.90;;;;;;5020639;28;20077;-72
2023/07/02 08:51:36;;;;;;;24.48;11.65;;;17.50;99.90;;;;;;5014483;28;20038;-72
2023/07/02 08:54:02;;;;;;;24.75;12.15;;;17.80;99.90;;;;;;5024851;28;20033;-73
2023/07/02 08:56:29;;;;;;;30.90;12.07;;;17.80;99.90;;;;;;5023525;28;20043;-74
2023/07/02 08:58:54;;;;;;;31.55;11.38;;;18.00;99.90;;;;;;5028499;28;20032;-74
2023/07/02 09:01:20;;;;;;;31.25;12.02;;;17.90;99.90;;;;;;5021495;28;20403;-72
2023/07/02 09:03:46;;;;;;;30.80;12.80;;;18.50;99.90;;;;;;5008676;28;20029;-71
2023/07/02 09:06:12;;;;;;;36.15;12.70;;;18.70;99.90;;;;;;5010395;28;20399;-74
2023/07/02 09:08:38;;;;;;;27.00;11.90;;;19.00;99.90;;;;;;5011263;28;20517;-75
2023/07/02 09:11:10;;;;;;;32.35;12.50;;;19.00;99.90;;;;;;5028185;28;20083;-73
2023/07/02 09:14:02;;;;;;;28.63;12.02;;;19.20;99.90;;;;;;5028880;28;20187;-74
2023/07/02 09:16:31;;;;;;;29.70;12.25;;;19.50;99.90;;;;;;5023643;28;20078;-73
2023/07/02 09:19:09;;;;;;;32.95;12.57;;;19.40;99.90;;;;;;5028177;28;20042;-74
2023/07/02 09:21:52;;;;;;;31.25;12.23;;;19.40;99.90;;;;;;5028849;28;20152;-75
2023/07/02 09:24:20;;;;;;;29.00;12.55;;;19.50;99.90;;;;;;5029234;28;20025;-72
2023/07/02 09:26:56;;;;;;;35.15;13.48;;;19.40;99.90;;;;;;5026226;28;20123;-71
2023/07/02 09:29:23;;;;;;;35.05;13.07;;;19.20;99.90;;;;;;5028962;28;20072;-74
2023/07/02 09:31:49;;;;;;;30.67;13.27;;;18.80;99.90;;;;;;5027577;28;20494;-75
2023/07/02 09:34:15;;;;;;;31.25;14.00;;;18.70;99.90;;;;;;5039491;28;20037;-73
2023/07/02 09:36:41;;;;;;;41.45;12.88;;;18.90;99.90;;;;;;5048608;28;20034;-74
2023/07/02 09:39:13;;;;;;;45.90;14.38;;;19.20;99.90;;;;;;5047789;28;20029;-73
2023/07/02 09:41:42;;;;;;;30.25;12.73;;;19.50;99.90;;;;;;5048722;28;20051;-75
2023/07/02 09:44:10;;;;;;;32.58;13.65;;;19.80;99.90;;;;;;5032810;28;20029;-74
2023/07/02 09:46:42;;;;;;;30.48;13.02;;;19.90;99.90;;;;;;5023866;28;20123;-73
2023/07/02 09:49:12;;;;;;;32.72;13.98;;;20.20;99.90;;;;;;5021675;28;20116;-75
2023/07/02 09:51:38;;;;;;;32.38;13.40;;;20.30;99.90;;;;;;5023293;28;20513;-74
2023/07/02 09:54:04;;;;;;;38.78;14.70;;;20.40;99.90;;;;;;5027724;28;20034;-74
2023/07/02 09:56:29;;;;;;;28.60;12.68;;;20.60;99.90;;;;;;5029065;28;20030;-74
2023/07/02 09:58:55;;;;;;;36.47;13.25;;;20.20;99.90;;;;;;5050453;28;20033;-73
2023/07/02 10:01:22;;;;;;;35.00;14.13;;;20.10;99.90;;;;;;5032435;28;20125;-73
2023/07/02 10:03:47;;;;;;;33.67;13.88;;;20.10;99.90;;;;;;5030583;28;20084;-74
2023/07/02 10:06:13;;;;;;;30.45;13.48;;;20.00;99.90;;;;;;5029333;28;20029;-73
2023/07/02 10:08:39;;;;;;;35.70;14.30;;;19.70;99.90;;;;;;5028164;28;20476;-73
2023/07/02 10:11:15;;;;;;;28.88;12.70;;;19.40;99.90;;;;;;5013591;28;20459;-74
2023/07/02 10:13:41;;;;;;;30.50;13.43;;;20.10;99.90;;;;;;5032324;28;20045;-73
2023/07/02 10:16:07;;;;;;;38.58;13.32;;;20.70;99.90;;;;;;5031452;28;20029;-76
2023/07/02 10:18:34;;;;;;;25.75;12.35;;;20.70;99.90;;;;;;5031182;28;20103;-76
2023/07/02 10:21:00;;;;;;;34.35;12.85;;;21.20;99.90;;;;;;5031392;28;20075;-72
2023/07/02 10:23:35;;;;;;;31.75;12.95;;;21.50;99.90;;;;;;5032199;28;20041;-73
2023/07/02 10:26:14;;;;;;;28.88;12.20;;;21.30;99.90;;;;;;5031050;28;20120;-73
2023/07/02 10:28:40;;;;;;;30.38;12.48;;;21.00;99.90;;;;;;5046398;28;20025;-73
2023/07/02 10:31:19;;;;;;;31.27;12.68;;;20.80;99.90;;;;;;5051103;28;20031;-71
2023/07/02 10:33:45;;;;;;;32.17;13.45;;;21.10;99.90;;;;;;5051942;28;20043;-73
2023/07/02 10:36:21;;;;;;;31.42;12.80;;;21.30;99.90;;;;;;5051238;28;20021;-73
2023/07/02 10:38:48;;;;;;;25.13;12.15;;;21.80;99.90;;;;;;5034593;28;20033;-73
2023/07/02 10:41:26;;;;;;;28.35;12.75;;;22.40;99.90;;;;;;5031162;28;20475;-74
2023/07/02 10:43:52;;;;;;;26.25;11.65;;;22.10;99.90;;;;;;5030857;28;20038;-72
2023/07/02 10:46:19;;;;;;;29.13;12.07;;;22.40;99.90;;;;;;5031296;28;20506;-73
2023/07/02 10:48:53;;;;;;;26.48;12.07;;;22.50;99.90;;;;;;5030833;28;20041;-72
2023/07/02 10:51:18;;;;;;;30.40;13.05;;;22.20;99.90;;;;;;5031543;28;20025;-74
2023/07/02 10:53:44;;;;;;;28.90;12.82;;;21.90;99.90;;;;;;5031497;28;20037;-72
2023/07/02 10:56:16;;;;;;;28.88;12.48;;;21.70;99.90;;;;;;5030848;28;20124;-74
2023/07/02 10:58:43;;;;;;;27.23;12.75;;;21.40;99.90;;;;;;5044710;28;20641;-73
2023/07/02 11:01:09;;;;;;;28.77;12.52;;;21.10;99.90;;;;;;5050572;28;20091;-73
2023/07/02 11:03:34;;;;;;;28.17;12.25;;;21.20;99.90;;;;;;5033420;28;20033;-75
2023/07/02 11:06:00;;;;;;;26.77;12.27;;;21.70;99.90;;;;;;5050089;28;20052;-72
2023/07/02 11:08:35;;;;;;;30.58;12.20;;;22.20;99.90;;;;;;5036720;28;20048;-72
2023/07/02 11:11:08;;;;;;;30.45;13.35;;;22.00;99.50;;;;;;5030418;28;20404;-74
2023/07/02 11:13:33;;;;;;;25.10;12.23;;;21.80;99.90;;;;;;5031074;28;20034;-74
2023/07/02 11:15:59;;;;;;;37.80;11.90;;;21.90;99.90;;;;;;5030554;28;20448;-74
2023/07/02 11:18:30;;;;;;;32.47;13.60;;;21.80;99.90;;;;;;5030563;28;20037;-73
2023/07/02 11:20:55;;;;;;;37.72;13.18;;;21.60;99.90;;;;;;5047422;28;20041;-72
2023/07/02 11:23:25;;;;;;;27.35;12.48;;;21.80;99.90;;;;;;5051013;28;20032;-73
2023/07/02 11:26:02;;;;;;;31.30;12.65;;;21.60;99.90;;;;;;5050790;28;20090;-74
2023/07/02 11:28:29;;;;;;;26.60;12.60;;;21.70;99.00;;;;;;5048527;28;20091;-73
2023/07/02 11:30:55;;;;;;;29.92;13.25;;;21.40;99.90;;;;;;5049931;28;20037;-72
2023/07/02 11:33:34;;;;;;;28.25;13.45;;;21.40;99.90;;;;;;5050700;28;20108;-74
2023/07/02 11:36:00;;;;;;;27.02;12.80;;;21.60;99.90;;;;;;5047392;28;20555;-72
2023/07/02 11:38:26;;;;;;;30.27;13.05;;;21.60;99.80;;;;;;5049195;28;20033;-74
2023/07/02 11:40:52;;;;;;;31.83;13.55;;;22.00;99.30;;;;;;5049924;28;20479;-72
2023/07/02 11:43:17;;;;;;;32.40;13.88;;;22.10;99.90;;;;;;5044544;28;20072;-74
2023/07/02 11:45:44;;;;;;;31.27;13.43;;;22.20;98.80;;;;;;5029528;28;20077;-78
2023/07/02 11:48:09;;;;;;;30.73;13.25;;;22.20;98.70;;;;;;5029731;28;20029;-73
2023/07/02 11:50:35;;;;;;;26.88;13.18;;;22.20;98.20;;;;;;5030463;28;20033;-72
2023/07/02 11:53:01;;;;;;;34.42;14.10;;;21.80;98.90;;;;;;5029536;28;20041;-73
2023/07/02 11:55:26;;;;;;;28.90;13.52;;;21.50;99.30;;;;;;5029687;28;20037;-74
2023/07/02 11:57:52;;;;;;;26.77;13.02;;;21.40;99.90;;;;;;5049292;28;20498;-72
2023/07/02 12:00:18;;;;;;;33.33;13.93;;;21.60;99.90;;;;;;5049626;28;20075;-73
2023/07/02 12:02:44;;;;;;;32.25;14.13;;;22.20;98.70;;;;;;5050076;28;20079;-74
2023/07/02 12:05:09;;;;;;;30.60;14.20;;;22.50;98.80;;;;;;5049320;28;20029;-73
2023/07/02 12:07:35;;;;;;;34.30;14.23;;;22.70;98.30;;;;;;5030230;28;20364;-74
2023/07/02 12:10:01;;;;;;;31.95;14.40;;;22.80;97.10;;;;;;5029266;28;20467;-72
2023/07/02 12:12:26;;;;;;;32.75;14.25;;;23.10;98.50;;;;;;5029829;28;20033;-73
2023/07/02 12:14:52;;;;;;;32.97;15.05;;;23.20;95.20;;;;;;5029571;28;20365;-70
2023/07/02 12:17:18;;;;;;;34.42;15.23;;;22.80;96.90;;;;;;5029107;28;20038;-72
2023/07/02 12:19:43;;;;;;;37.97;14.55;;;22.50;96.50;;;;;;5029731;28;20026;-73
2023/07/02 12:22:09;;;;;;;28.45;13.20;;;22.70;97.40;;;;;;5029144;28;20026;-73
2023/07/02 12:24:35;;;;;;;32.40;14.93;;;22.90;96.30;;;;;;5029808;28;20426;-72
2023/07/02 12:27:00;;;;;;;33.58;15.27;;;22.60;96.40;;;;;;5040560;28;20043;-73
2023/07/02 12:29:26;;;;;;;31.33;14.45;;;22.50;97.90;;;;;;5049563;28;20436;-74
2023/07/02 12:31:52;;;;;;;31.50;14.77;;;22.30;97.20;;;;;;5049168;28;20386;-71